Time;durP1;ratioP1;P1;durP2;ratioP2;P2;SDS_P1;SDS_P2;PMS_P1;PMS_P2;Temp;Humidity;BMP_temperature;BMP_pressure;BME280_temperature;BME280_humidity;BME280_pressure;Samples;Min_cycle;Max_cycle;Signal;HPM_P1;HPM_P2
2022/01/30 00:01:38;;;;;;;18.93;6.30;;;6.60;1.00;;;;;;6259988;28;20596;-58
2022/01/30 00:04:41;;;;;;;20.83;6.57;;;6.40;1.00;;;;;;6280106;28;20590;-58
2022/01/30 00:07:44;;;;;;;25.50;6.50;;;6.50;1.00;;;;;;6281906;28;20229;-59
2022/01/30 00:10:52;;;;;;;18.87;6.97;;;6.10;1.00;;;;;;6279425;28;20230;-58
2022/01/30 00:13:57;;;;;;;18.00;6.23;;;6.40;1.00;;;;;;6259869;28;20234;-59
2022/01/30 00:17:06;;;;;;;16.13;6.40;;;6.10;1.00;;;;;;6259881;28;20507;-58
2022/01/30 00:20:15;;;;;;;13.90;6.20;;;6.30;1.00;;;;;;6259146;28;20234;-58
2022/01/30 00:23:23;;;;;;;23.07;6.43;;;6.20;1.00;;;;;;6259265;28;20767;-56
2022/01/30 00:26:29;;;;;;;17.20;6.57;;;6.30;1.00;;;;;;6260239;28;20720;-58
2022/01/30 00:29:33;;;;;;;23.03;6.07;;;6.20;1.00;;;;;;6260486;28;20354;-58
2022/01/30 00:32:36;;;;;;;11.57;5.87;;;6.40;1.00;;;;;;6267953;28;20233;-59
2022/01/30 00:35:59;;;;;;;21.37;7.10;;;6.60;1.00;;;;;;6285628;28;20233;-56
2022/01/30 00:39:02;;;;;;;17.27;6.40;;;6.50;1.00;;;;;;6277293;28;20229;-59
2022/01/30 00:42:06;;;;;;;18.03;6.03;;;6.40;1.00;;;;;;6285197;28;20229;-58
2022/01/30 00:45:11;;;;;;;21.40;6.63;;;6.50;1.00;;;;;;6276420;28;20229;-57
2022/01/30 00:48:14;;;;;;;21.93;5.67;;;6.60;1.00;;;;;;6260794;28;20254;-59
2022/01/30 00:51:17;;;;;;;22.57;5.40;;;6.50;1.00;;;;;;6260528;28;20361;-58
2022/01/30 00:54:20;;;;;;;13.13;5.53;;;6.60;1.00;;;;;;6270563;28;20363;-58
2022/01/30 00:57:23;;;;;;;16.63;5.50;;;6.80;1.00;;;;;;6285513;28;20247;-58
2022/01/30 01:00:27;;;;;;;14.77;5.77;;;6.70;1.00;;;;;;6284197;28;20578;-58
2022/01/30 01:03:30;;;;;;;12.13;5.63;;;6.50;1.00;;;;;;6283187;28;20324;-58
2022/01/30 01:06:33;;;;;;;17.40;6.30;;;6.50;1.00;;;;;;6285030;28;20313;-59
2022/01/30 01:09:38;;;;;;;13.27;5.30;;;6.50;1.00;;;;;;6262549;28;20321;-57
2022/01/30 01:13:00;;;;;;;18.63;5.97;;;6.40;1.00;;;;;;6261133;28;20253;-63
2022/01/30 01:26:06;;;;;;;17.77;5.33;;;6.40;1.00;;;;;;6283533;28;20232;-58
2022/01/30 01:29:09;;;;;;;19.93;6.20;;;6.50;1.00;;;;;;6284732;28;20233;-60
2022/01/30 01:32:13;;;;;;;20.63;6.03;;;6.80;1.00;;;;;;6287583;28;20370;-57
2022/01/30 01:35:15;;;;;;;15.57;6.10;;;6.70;1.00;;;;;;6273823;28;20309;-60
2022/01/30 01:38:19;;;;;;;16.67;5.90;;;6.70;1.00;;;;;;6289744;28;20323;-58
2022/01/30 01:41:23;;;;;;;19.57;6.33;;;6.90;1.00;;;;;;6289221;28;20233;-58
2022/01/30 01:44:33;;;;;;;18.93;5.60;;;6.30;1.00;;;;;;6276333;28;20230;-58
2022/01/30 01:47:37;;;;;;;19.07;6.07;;;7.00;1.00;;;;;;6264217;28;20240;-58
2022/01/30 01:50:44;;;;;;;17.23;6.03;;;6.80;1.00;;;;;;6263961;28;20226;-57
2022/01/30 01:53:49;;;;;;;19.17;5.57;;;6.80;1.00;;;;;;6263502;28;20384;-58
2022/01/30 01:56:52;;;;;;;18.27;6.10;;;6.80;1.00;;;;;;6260747;28;20314;-56
2022/01/30 01:59:56;;;;;;;15.80;5.90;;;6.70;1.00;;;;;;6275237;28;20311;-57
2022/01/30 02:03:00;;;;;;;16.00;5.27;;;6.90;1.00;;;;;;6286098;28;20424;-58
2022/01/30 02:06:04;;;;;;;15.57;5.67;;;6.80;1.00;;;;;;6285444;28;20707;-56
2022/01/30 02:09:11;;;;;;;12.57;5.77;;;6.80;1.00;;;;;;6269088;28;20290;-58
2022/01/30 02:12:19;;;;;;;14.47;5.77;;;7.10;1.00;;;;;;6287935;28;20275;-58
2022/01/30 02:25:42;;;;;;;19.90;6.33;;;6.70;1.00;;;;;;6263008;28;20245;-57
2022/01/30 02:28:45;;;;;;;12.17;5.50;;;6.70;1.00;;;;;;6262432;28;20234;-57
2022/01/30 02:31:48;;;;;;;17.00;6.60;;;6.70;1.00;;;;;;6262844;28;20726;-56
2022/01/30 02:34:51;;;;;;;12.17;5.87;;;6.80;1.00;;;;;;6286873;28;20848;-54
2022/01/30 02:37:56;;;;;;;15.57;5.57;;;6.80;1.00;;;;;;6283490;28;20298;-59
2022/01/30 02:41:01;;;;;;;14.90;5.83;;;6.90;1.00;;;;;;6286109;28;20234;-59
2022/01/30 02:44:11;;;;;;;17.50;6.00;;;6.80;1.00;;;;;;6287054;28;20397;-58
2022/01/30 02:47:24;;;;;;;16.03;6.10;;;7.00;1.00;;;;;;6263109;28;20233;-59
2022/01/30 02:50:37;;;;;;;18.17;5.57;;;6.80;1.00;;;;;;6263423;28;20302;-59
2022/01/30 02:53:43;;;;;;;13.67;5.63;;;6.80;1.00;;;;;;6261430;28;20268;-58
2022/01/30 02:56:47;;;;;;;15.50;5.77;;;6.90;1.00;;;;;;6262795;28;20349;-58
2022/01/30 02:59:50;;;;;;;17.50;5.47;;;6.80;1.00;;;;;;6262477;28;20360;-59
2022/01/30 03:02:53;;;;;;;14.93;6.07;;;6.80;1.00;;;;;;6268445;28;20275;-59
2022/01/30 03:05:56;;;;;;;15.50;6.07;;;6.70;1.00;;;;;;6287282;28;20236;-58
2022/01/30 03:08:59;;;;;;;16.97;5.90;;;6.90;1.00;;;;;;6270804;28;20273;-58
2022/01/30 03:12:04;;;;;;;14.43;5.80;;;6.70;1.00;;;;;;6262438;28;20237;-58
2022/01/30 03:15:08;;;;;;;14.20;6.33;;;6.70;1.00;;;;;;6261144;28;21178;-58
2022/01/30 03:18:11;;;;;;;17.47;5.97;;;7.00;1.00;;;;;;6284413;28;20609;-59
2022/01/30 03:21:14;;;;;;;16.63;5.87;;;6.60;1.00;;;;;;6262330;28;20340;-58
2022/01/30 03:24:17;;;;;;;13.40;5.50;;;6.70;1.00;;;;;;6262081;28;20735;-58
2022/01/30 03:27:22;;;;;;;10.37;5.27;;;6.80;1.00;;;;;;6275591;28;20229;-58
2022/01/30 03:30:28;;;;;;;13.10;5.50;;;6.70;1.00;;;;;;6283559;28;20234;-58
2022/01/30 03:33:31;;;;;;;14.90;5.90;;;6.70;1.00;;;;;;6282251;28;20256;-58
2022/01/30 03:36:35;;;;;;;20.27;6.67;;;6.40;1.00;;;;;;6284066;28;20239;-58
2022/01/30 03:39:38;;;;;;;17.20;6.17;;;6.60;1.00;;;;;;6284665;28;20320;-58
2022/01/30 03:42:42;;;;;;;13.40;6.30;;;6.30;1.00;;;;;;6285372;28;20515;-60
2022/01/30 03:45:45;;;;;;;22.00;7.47;;;6.30;1.00;;;;;;6283819;28;20341;-59
2022/01/30 03:48:49;;;;;;;18.17;6.63;;;6.50;1.00;;;;;;6284872;28;20391;-58
2022/01/30 03:51:51;;;;;;;17.73;7.00;;;6.40;1.00;;;;;;6284444;28;20233;-57
2022/01/30 03:54:54;;;;;;;18.83;6.90;;;6.60;1.00;;;;;;6266209;28;20238;-58
2022/01/30 03:57:58;;;;;;;17.10;6.07;;;6.50;1.00;;;;;;6259065;28;20524;-59
2022/01/30 04:01:01;;;;;;;16.73;6.20;;;6.40;1.00;;;;;;6258339;28;20230;-57
2022/01/30 04:04:04;;;;;;;19.07;6.60;;;6.40;1.00;;;;;;6275286;28;20244;-57
2022/01/30 04:07:08;;;;;;;23.40;6.93;;;6.30;1.00;;;;;;6275083;28;20376;-57
2022/01/30 04:10:12;;;;;;;14.30;6.53;;;6.40;1.00;;;;;;6260455;28;20710;-57
2022/01/30 04:13:16;;;;;;;17.23;6.53;;;6.10;1.00;;;;;;6259702;28;20388;-57
2022/01/30 04:16:19;;;;;;;22.83;6.33;;;6.10;1.00;;;;;;6258808;28;20291;-57
2022/01/30 04:19:23;;;;;;;16.93;6.33;;;5.80;1.00;;;;;;6258521;28;20230;-57
2022/01/30 04:22:25;;;;;;;17.47;6.67;;;5.80;1.00;;;;;;6259873;28;20310;-57
2022/01/30 04:25:28;;;;;;;17.90;6.10;;;5.70;1.00;;;;;;6259361;28;20333;-58
2022/01/30 04:28:32;;;;;;;14.67;5.47;;;5.20;1.00;;;;;;6258340;28;20235;-58
2022/01/30 04:31:35;;;;;;;11.57;5.53;;;5.70;1.00;;;;;;6248961;28;20631;-58
2022/01/30 04:34:40;;;;;;;16.20;5.83;;;5.80;1.00;;;;;;6277534;28;20371;-59
2022/01/30 04:37:57;;;;;;;16.83;5.63;;;5.80;1.00;;;;;;6270928;28;20386;-58
2022/01/30 04:41:23;;;;;;;18.03;6.00;;;5.90;1.00;;;;;;6271348;28;20495;-57
2022/01/30 04:57:58;;;;;;;11.43;5.90;;;5.80;1.00;;;;;;6277045;28;20229;-57
2022/01/30 05:01:11;;;;;;;10.50;5.60;;;6.00;1.00;;;;;;6278860;28;20429;-63
2022/01/30 05:04:23;;;;;;;13.03;5.73;;;5.90;1.00;;;;;;6275392;28;20752;-58
2022/01/30 05:07:28;;;;;;;11.83;5.43;;;6.20;1.00;;;;;;6280275;28;20390;-58
2022/01/30 05:10:31;;;;;;;10.53;5.87;;;5.90;1.00;;;;;;6286212;28;20751;-60
2022/01/30 05:13:37;;;;;;;15.37;5.70;;;5.90;1.00;;;;;;6285414;28;20495;-58
2022/01/30 05:16:42;;;;;;;13.33;5.20;;;5.90;1.00;;;;;;6278928;28;20237;-58
2022/01/30 05:19:45;;;;;;;15.30;6.00;;;5.80;1.00;;;;;;6278670;28;20234;-57
2022/01/30 05:22:48;;;;;;;15.53;6.30;;;6.00;1.00;;;;;;6279843;28;20273;-58
2022/01/30 05:25:52;;;;;;;20.27;5.80;;;6.00;1.00;;;;;;6286611;28;20264;-57
2022/01/30 05:28:56;;;;;;;19.73;6.27;;;5.90;1.00;;;;;;6276011;28;20766;-58
2022/01/30 05:32:00;;;;;;;22.43;6.33;;;5.80;1.00;;;;;;6284535;28;20352;-57
2022/01/30 05:35:04;;;;;;;15.83;6.53;;;5.80;1.00;;;;;;6283736;28;20251;-58
2022/01/30 05:38:07;;;;;;;16.20;6.40;;;6.10;1.00;;;;;;6274705;28;20250;-59
2022/01/30 05:41:10;;;;;;;17.60;6.23;;;6.10;1.00;;;;;;6282956;28;20279;-57
2022/01/30 05:44:18;;;;;;;22.30;6.60;;;5.90;1.00;;;;;;6285283;28;20237;-59
2022/01/30 05:47:29;;;;;;;15.30;6.60;;;6.00;1.00;;;;;;6280530;28;20716;-57
2022/01/30 05:50:33;;;;;;;13.77;5.60;;;6.20;1.00;;;;;;6278415;28;20221;-59
2022/01/30 05:53:36;;;;;;;12.70;5.73;;;6.10;1.00;;;;;;6281534;28;20247;-60
2022/01/30 05:56:38;;;;;;;23.37;6.23;;;6.10;1.00;;;;;;6283942;28;20238;-58
2022/01/30 05:59:41;;;;;;;14.77;5.63;;;5.90;1.00;;;;;;6280898;28;20265;-59
2022/01/30 06:02:46;;;;;;;13.57;5.27;;;6.00;1.00;;;;;;6276365;28;20514;-57
2022/01/30 06:05:49;;;;;;;16.37;5.57;;;5.90;1.00;;;;;;6275706;28;20606;-57
2022/01/30 06:09:02;;;;;;;15.70;5.70;;;5.70;1.00;;;;;;6284474;28;20230;-58
2022/01/30 06:12:05;;;;;;;18.93;6.20;;;5.80;1.00;;;;;;6281704;28;20729;-58
2022/01/30 06:15:09;;;;;;;15.47;6.00;;;5.90;1.00;;;;;;6280483;28;20426;-57
2022/01/30 06:18:14;;;;;;;13.90;5.70;;;6.00;1.00;;;;;;6281559;28;20228;-58
2022/01/30 06:21:17;;;;;;;26.30;6.93;;;6.00;1.00;;;;;;6285252;28;20692;-59
2022/01/30 06:24:19;;;;;;;23.93;6.80;;;5.90;1.00;;;;;;6278537;28;20327;-59
2022/01/30 06:27:22;;;;;;;22.93;6.67;;;6.20;1.00;;;;;;6274114;28;20313;-59
2022/01/30 06:30:25;;;;;;;22.57;7.33;;;6.00;1.00;;;;;;6280390;28;20387;-57
2022/01/30 06:33:29;;;;;;;19.63;6.37;;;6.00;1.00;;;;;;6285870;28;20930;-57
2022/01/30 06:36:32;;;;;;;13.73;6.13;;;6.10;1.00;;;;;;6283094;28;20233;-58
2022/01/30 06:39:34;;;;;;;24.90;6.60;;;5.90;1.00;;;;;;6278042;28;20280;-58
2022/01/30 06:42:37;;;;;;;21.13;6.23;;;6.10;1.00;;;;;;6284836;28;20753;-58
2022/01/30 06:45:42;;;;;;;17.63;6.10;;;5.90;1.00;;;;;;6285532;28;20318;-59
2022/01/30 06:48:46;;;;;;;15.73;6.43;;;6.00;1.00;;;;;;6269127;28;20670;-58
2022/01/30 06:51:49;;;;;;;14.83;6.23;;;6.10;1.00;;;;;;6285872;28;20387;-58
2022/01/30 06:54:51;;;;;;;12.57;6.30;;;6.10;1.00;;;;;;6278883;28;20233;-59
2022/01/30 06:57:54;;;;;;;23.00;7.03;;;6.00;1.00;;;;;;6281953;28;20233;-62
2022/01/30 07:00:57;;;;;;;10.20;5.50;;;6.20;1.00;;;;;;6283722;28;20271;-59
2022/01/30 07:04:06;;;;;;;13.97;5.97;;;5.90;1.00;;;;;;6283874;28;20264;-60
2022/01/30 07:07:09;;;;;;;17.27;6.47;;;6.10;1.00;;;;;;6282379;28;20230;-60
2022/01/30 07:10:11;;;;;;;19.83;6.73;;;6.30;1.00;;;;;;6283692;28;20319;-58
2022/01/30 07:13:14;;;;;;;13.90;5.83;;;6.30;1.00;;;;;;6284040;28;20726;-60
2022/01/30 07:16:17;;;;;;;19.20;7.13;;;6.30;1.00;;;;;;6275834;28;20714;-58
2022/01/30 07:19:21;;;;;;;17.63;6.30;;;6.50;1.00;;;;;;6273227;28;20241;-59
2022/01/30 07:22:24;;;;;;;17.57;6.30;;;6.50;1.00;;;;;;6284229;28;20825;-58
2022/01/30 07:25:26;;;;;;;16.10;6.33;;;6.30;1.00;;;;;;6282976;28;20410;-57
2022/01/30 07:28:29;;;;;;;17.53;6.40;;;6.50;1.00;;;;;;6280517;28;20269;-58
2022/01/30 07:31:32;;;;;;;19.83;6.23;;;6.50;1.00;;;;;;6283763;28;20264;-58
2022/01/30 07:34:36;;;;;;;14.47;6.37;;;6.60;1.00;;;;;;6277491;28;20249;-58
2022/01/30 07:37:40;;;;;;;20.13;6.37;;;6.60;1.00;;;;;;6277309;28;20245;-59
2022/01/30 07:40:43;;;;;;;26.20;6.30;;;6.80;1.00;;;;;;6282539;28;20229;-58
2022/01/30 07:43:46;;;;;;;18.40;6.07;;;6.40;1.00;;;;;;6281062;28;20241;-57
2022/01/30 07:46:49;;;;;;;21.70;6.33;;;6.50;1.00;;;;;;6283501;28;20749;-56
2022/01/30 07:49:53;;;;;;;11.13;6.10;;;6.60;1.00;;;;;;6282982;28;20302;-59
2022/01/30 07:52:56;;;;;;;13.57;5.87;;;6.50;1.00;;;;;;6283060;28;20229;-57
2022/01/30 07:55:59;;;;;;;17.83;6.03;;;6.60;1.00;;;;;;6283466;28;20322;-57
2022/01/30 07:59:01;;;;;;;12.10;6.27;;;6.60;1.00;;;;;;6280938;28;20233;-58
2022/01/30 08:02:05;;;;;;;15.13;6.47;;;6.40;1.00;;;;;;6275829;28;20328;-57
2022/01/30 08:05:10;;;;;;;18.67;5.57;;;6.60;1.00;;;;;;6277358;28;20241;-57
2022/01/30 08:08:13;;;;;;;19.53;5.83;;;6.60;1.00;;;;;;6274570;28;20324;-58
2022/01/30 08:11:16;;;;;;;18.00;5.73;;;6.60;1.00;;;;;;6276827;28;20307;-59
2022/01/30 08:14:18;;;;;;;19.03;5.90;;;6.60;1.00;;;;;;6276621;28;20244;-57
2022/01/30 08:17:23;;;;;;;13.40;5.60;;;6.80;1.00;;;;;;6275049;28;20262;-59
2022/01/30 08:20:27;;;;;;;13.93;5.97;;;6.60;1.00;;;;;;6281544;28;20310;-60
2022/01/30 08:23:32;;;;;;;19.13;6.00;;;6.50;1.00;;;;;;6278628;28;20251;-57
2022/01/30 08:26:34;;;;;;;17.07;6.00;;;6.70;1.00;;;;;;6272377;28;20312;-58
2022/01/30 08:29:38;;;;;;;16.40;5.43;;;6.80;1.00;;;;;;6263008;28;20232;-58
2022/01/30 08:32:41;;;;;;;18.00;6.17;;;6.60;1.00;;;;;;6277933;28;20352;-58
2022/01/30 08:35:46;;;;;;;17.90;7.20;;;6.60;1.00;;;;;;6279623;28;20549;-58
2022/01/30 08:38:49;;;;;;;19.43;6.07;;;6.80;1.00;;;;;;6267993;28;20233;-58
2022/01/30 08:41:52;;;;;;;11.27;5.57;;;6.70;1.00;;;;;;6259893;28;20232;-58
2022/01/30 08:44:54;;;;;;;12.23;6.13;;;6.70;1.00;;;;;;6285831;28;20238;-59
2022/01/30 08:47:57;;;;;;;21.77;6.90;;;6.70;1.00;;;;;;6281487;28;20225;-59
2022/01/30 08:51:01;;;;;;;16.30;5.70;;;6.70;1.00;;;;;;6281866;28;20341;-60
2022/01/30 08:54:04;;;;;;;14.23;6.03;;;6.80;1.00;;;;;;6286025;28;20291;-59
2022/01/30 08:57:07;;;;;;;15.47;6.67;;;6.80;1.00;;;;;;6282679;28;20241;-59
2022/01/30 09:00:18;;;;;;;18.30;6.57;;;6.80;1.00;;;;;;6280146;28;20616;-58
2022/01/30 09:03:20;;;;;;;20.97;6.80;;;6.70;1.00;;;;;;6276206;28;20258;-59
2022/01/30 09:06:24;;;;;;;23.67;6.83;;;7.00;1.00;;;;;;6277294;28;20233;-59
2022/01/30 09:09:27;;;;;;;12.13;5.90;;;6.90;1.00;;;;;;6281674;28;20259;-58
2022/01/30 09:12:30;;;;;;;17.07;6.57;;;6.90;1.00;;;;;;6284905;28;20330;-56
2022/01/30 09:15:37;;;;;;;16.43;6.50;;;6.90;1.00;;;;;;6279824;28;20247;-59
2022/01/30 09:18:40;;;;;;;18.80;6.47;;;7.20;1.00;;;;;;6273269;28;20306;-60
2022/01/30 09:21:44;;;;;;;18.73;6.27;;;7.30;1.00;;;;;;6286104;28;20326;-59
2022/01/30 09:24:48;;;;;;;18.83;6.07;;;7.10;1.00;;;;;;6283289;28;20233;-58
2022/01/30 09:27:50;;;;;;;14.27;6.90;;;7.10;1.00;;;;;;6279917;28;20413;-60
2022/01/30 09:30:53;;;;;;;19.47;6.40;;;7.10;1.00;;;;;;6285096;28;20347;-58
2022/01/30 09:33:56;;;;;;;17.97;6.73;;;7.50;1.00;;;;;;6278822;28;20240;-60
2022/01/30 09:37:00;;;;;;;20.13;6.77;;;7.20;1.00;;;;;;6285536;28;20374;-59
2022/01/30 09:40:04;;;;;;;19.17;7.33;;;7.30;1.00;;;;;;6278986;28;20237;-59
2022/01/30 09:43:07;;;;;;;18.10;6.63;;;7.20;1.00;;;;;;6278380;28;20390;-59
2022/01/30 09:46:11;;;;;;;17.10;6.20;;;7.40;1.00;;;;;;6286134;28;20366;-58
2022/01/30 09:49:15;;;;;;;13.83;6.80;;;7.30;1.00;;;;;;6284544;28;20275;-59
2022/01/30 09:52:20;;;;;;;25.93;6.67;;;7.30;1.00;;;;;;6285449;28;20244;-59
2022/01/30 09:55:23;;;;;;;18.10;6.77;;;7.30;1.00;;;;;;6284973;28;20811;-57
2022/01/30 09:58:26;;;;;;;16.27;7.40;;;7.30;1.00;;;;;;6274978;28;20647;-59
2022/01/30 10:01:33;;;;;;;20.43;6.40;;;7.20;1.00;;;;;;6284729;28;20494;-56
2022/01/30 10:04:38;;;;;;;22.03;6.87;;;7.20;1.00;;;;;;6282945;28;20571;-60
2022/01/30 10:07:45;;;;;;;30.67;7.60;;;7.20;1.00;;;;;;6278799;28;20237;-60
2022/01/30 10:10:59;;;;;;;22.30;7.10;;;7.20;1.00;;;;;;6277100;28;20343;-58
2022/01/30 10:14:04;;;;;;;27.50;6.87;;;7.40;1.00;;;;;;6283171;28;20324;-59
2022/01/30 10:17:07;;;;;;;24.40;6.47;;;7.40;1.00;;;;;;6274925;28;20833;-59
2022/01/30 10:20:11;;;;;;;15.73;6.53;;;7.10;1.00;;;;;;6280256;28;20388;-59
2022/01/30 10:23:16;;;;;;;23.00;6.77;;;7.20;1.00;;;;;;6282808;28;20328;-58
2022/01/30 10:26:30;;;;;;;21.63;6.60;;;7.00;1.00;;;;;;6277963;28;20275;-60
2022/01/30 10:29:35;;;;;;;17.87;6.63;;;7.10;1.00;;;;;;6270597;28;20241;-59
2022/01/30 10:32:38;;;;;;;14.70;6.83;;;7.20;1.00;;;;;;6280439;28;20237;-60
2022/01/30 10:35:50;;;;;;;17.00;7.07;;;7.30;1.00;;;;;;6279501;28;20890;-60
2022/01/30 10:39:02;;;;;;;22.70;7.70;;;7.20;1.00;;;;;;6281599;28;20241;-59
2022/01/30 10:42:05;;;;;;;18.63;7.13;;;7.20;1.00;;;;;;6277274;28;20234;-58
2022/01/30 10:45:29;;;;;;;18.40;7.20;;;7.50;1.00;;;;;;6274906;28;20241;-59
2022/01/30 10:48:32;;;;;;;29.13;7.90;;;7.30;1.00;;;;;;6281805;28;20237;-58
2022/01/30 10:51:35;;;;;;;28.40;7.67;;;7.50;1.00;;;;;;6282680;28;20389;-59
2022/01/30 10:54:40;;;;;;;30.17;8.10;;;7.70;1.00;;;;;;6270736;28;20229;-58
2022/01/30 10:57:46;;;;;;;24.10;6.90;;;7.50;1.00;;;;;;6270583;28;20256;-57
2022/01/30 11:00:51;;;;;;;24.43;7.30;;;7.40;1.00;;;;;;6279675;28;20233;-59
2022/01/30 11:03:55;;;;;;;20.77;7.20;;;7.50;1.00;;;;;;6275144;28;20324;-58
2022/01/30 11:07:00;;;;;;;23.30;7.77;;;7.30;1.00;;;;;;6276908;28;20668;-59
2022/01/30 11:10:10;;;;;;;21.90;6.67;;;7.30;1.00;;;;;;6278305;28;20399;-59
2022/01/30 11:13:24;;;;;;;21.73;8.00;;;7.30;1.00;;;;;;6276005;28;20549;-60
2022/01/30 11:19:52;;;;;;;30.37;9.00;;;7.40;1.00;;;;;;6278902;28;20240;-58
2022/01/30 11:22:57;;;;;;;18.43;6.87;;;7.40;1.00;;;;;;6276215;28;20439;-57
2022/01/30 11:26:01;;;;;;;24.00;7.37;;;7.50;1.00;;;;;;6266171;28;20225;-57
2022/01/30 11:29:07;;;;;;;25.23;7.40;;;7.40;1.00;;;;;;6274960;28;20674;-60
2022/01/30 11:32:10;;;;;;;22.57;6.83;;;7.40;1.00;;;;;;6280365;28;20744;-58
2022/01/30 11:35:13;;;;;;;24.47;7.70;;;7.30;1.00;;;;;;6274647;28;20295;-58
2022/01/30 11:38:16;;;;;;;25.67;8.53;;;7.40;1.00;;;;;;6279758;28;20290;-58
2022/01/30 11:41:21;;;;;;;27.47;7.97;;;7.40;1.00;;;;;;6273396;28;20309;-58
2022/01/30 11:44:29;;;;;;;25.20;7.87;;;7.50;1.00;;;;;;6279894;28;20316;-58
2022/01/30 11:47:45;;;;;;;33.27;7.57;;;7.60;1.00;;;;;;6268244;28;20321;-57
2022/01/30 11:51:03;;;;;;;21.53;7.20;;;7.50;1.00;;;;;;6272224;28;20317;-60
2022/01/30 11:54:33;;;;;;;24.83;7.87;;;7.50;1.00;;;;;;6280085;28;20523;-60
2022/01/30 11:57:47;;;;;;;24.57;7.77;;;7.50;1.00;;;;;;6274291;28;20225;-58
2022/01/30 12:00:50;;;;;;;25.57;7.40;;;7.50;1.00;;;;;;6269949;28;20800;-58
2022/01/30 12:03:54;;;;;;;25.40;7.27;;;7.60;1.00;;;;;;6274353;28;20233;-57
2022/01/30 12:06:57;;;;;;;34.27;8.87;;;7.60;1.00;;;;;;6279964;28;20245;-59
2022/01/30 12:10:33;;;;;;;28.00;7.83;;;7.60;1.00;;;;;;6277554;28;20233;-58
2022/01/30 12:13:46;;;;;;;25.53;7.97;;;7.60;1.00;;;;;;6275934;28;20237;-59
2022/01/30 12:16:51;;;;;;;29.10;8.40;;;7.60;1.00;;;;;;6277529;28;20286;-57
2022/01/30 12:20:01;;;;;;;31.47;10.07;;;7.60;1.00;;;;;;6271645;28;20722;-56
2022/01/30 12:23:04;;;;;;;40.00;10.27;;;7.60;1.00;;;;;;6276046;28;20307;-58
2022/01/30 12:26:08;;;;;;;29.13;9.57;;;7.60;1.00;;;;;;6273712;28;20233;-57
2022/01/30 12:29:35;;;;;;;35.43;10.00;;;7.60;1.00;;;;;;6277568;28;20328;-59
2022/01/30 12:32:39;;;;;;;39.93;10.20;;;7.60;1.00;;;;;;6276486;28;20234;-59
2022/01/30 12:35:45;;;;;;;27.10;8.53;;;7.90;1.00;;;;;;6277546;28;20253;-59
2022/01/30 12:39:02;;;;;;;26.20;8.07;;;7.60;1.00;;;;;;6271628;28;20264;-58
2022/01/30 12:42:05;;;;;;;26.60;8.43;;;7.60;1.00;;;;;;6280092;28;20717;-58
2022/01/30 12:45:12;;;;;;;26.33;8.30;;;7.60;1.00;;;;;;6274006;28;20720;-58
2022/01/30 12:48:16;;;;;;;21.97;8.20;;;7.60;1.00;;;;;;6270968;28;20606;-59
2022/01/30 12:51:19;;;;;;;26.33;8.10;;;7.80;1.00;;;;;;6269470;28;20331;-57
2022/01/30 12:54:23;;;;;;;25.77;8.67;;;7.70;1.00;;;;;;6280831;28;20245;-57
2022/01/30 12:57:27;;;;;;;27.83;8.50;;;7.70;1.00;;;;;;6274249;28;20771;-57
2022/01/30 13:00:31;;;;;;;24.67;7.87;;;7.80;1.00;;;;;;6281558;28;20241;-57
2022/01/30 13:03:34;;;;;;;27.37;8.40;;;7.70;1.00;;;;;;6281441;28;20734;-58
2022/01/30 13:06:39;;;;;;;29.00;8.23;;;7.80;1.00;;;;;;6278499;28;20236;-60
2022/01/30 13:09:42;;;;;;;25.90;7.73;;;7.70;1.00;;;;;;6281334;28;20247;-58
2022/01/30 13:12:45;;;;;;;23.63;7.40;;;7.70;1.00;;;;;;6282064;28;20639;-56
2022/01/30 13:15:57;;;;;;;28.27;8.23;;;7.60;1.00;;;;;;6276449;28;20712;-57
2022/01/30 13:19:01;;;;;;;34.57;8.13;;;7.80;1.00;;;;;;6278988;28;20238;-58
2022/01/30 13:22:06;;;;;;;25.23;8.07;;;7.80;1.00;;;;;;6277147;28;20485;-57
2022/01/30 13:25:10;;;;;;;29.70;8.73;;;7.80;1.00;;;;;;6277905;28;20290;-59
2022/01/30 13:28:21;;;;;;;25.80;8.00;;;7.80;1.00;;;;;;6281715;28;20255;-59
2022/01/30 13:31:25;;;;;;;19.87;7.63;;;7.70;1.00;;;;;;6282433;28;20602;-58
2022/01/30 13:34:29;;;;;;;23.37;7.90;;;7.70;1.00;;;;;;6280575;28;20320;-58
2022/01/30 13:37:36;;;;;;;27.33;7.43;;;7.80;1.00;;;;;;6285140;28;20237;-55
2022/01/30 13:40:54;;;;;;;28.13;9.23;;;7.70;1.00;;;;;;6284679;28;20221;-56
2022/01/30 13:43:58;;;;;;;30.03;8.37;;;7.70;1.00;;;;;;6283618;28;20271;-58
2022/01/30 13:47:03;;;;;;;28.90;7.77;;;7.70;1.00;;;;;;6274119;28;20241;-58
2022/01/30 13:50:15;;;;;;;27.60;8.03;;;7.70;1.00;;;;;;6284622;28;20229;-58
2022/01/30 13:53:25;;;;;;;27.00;7.63;;;7.70;1.00;;;;;;6281285;28;20768;-58
2022/01/30 13:56:28;;;;;;;23.00;7.90;;;7.70;1.00;;;;;;6274041;28;20314;-59
2022/01/30 13:59:31;;;;;;;26.43;7.87;;;7.60;1.00;;;;;;6276836;28;20256;-60
2022/01/30 14:02:35;;;;;;;24.23;7.80;;;7.60;1.00;;;;;;6276083;28;20324;-60
2022/01/30 14:05:41;;;;;;;23.60;7.90;;;7.60;1.00;;;;;;6282450;28;20240;-58
2022/01/30 14:08:49;;;;;;;28.83;9.17;;;7.70;1.00;;;;;;6282954;28;20237;-59
2022/01/30 14:12:02;;;;;;;25.43;7.90;;;7.70;1.00;;;;;;6280249;28;20372;-58
2022/01/30 14:15:07;;;;;;;20.20;7.07;;;7.70;1.00;;;;;;6278557;28;20226;-58
2022/01/30 14:18:16;;;;;;;28.77;8.77;;;7.70;1.00;;;;;;6284680;28;20278;-58
2022/01/30 14:21:19;;;;;;;27.83;8.27;;;7.50;1.00;;;;;;6278397;28;20391;-61
2022/01/30 14:24:24;;;;;;;22.70;7.50;;;7.50;1.00;;;;;;6270154;28;20621;-59
2022/01/30 14:27:27;;;;;;;28.63;8.33;;;7.50;1.00;;;;;;6261338;28;20659;-61
2022/01/30 14:30:37;;;;;;;27.27;8.57;;;7.40;1.00;;;;;;6262215;28;20753;-61
2022/01/30 14:33:41;;;;;;;23.90;8.20;;;7.40;1.00;;;;;;6259777;28;20422;-59
2022/01/30 14:36:44;;;;;;;26.60;7.30;;;7.30;1.00;;;;;;6258814;28;20242;-59
2022/01/30 14:39:54;;;;;;;34.00;9.40;;;7.30;1.00;;;;;;6260991;28;20253;-59
2022/01/30 14:42:57;;;;;;;24.77;8.37;;;7.40;1.00;;;;;;6253935;28;20244;-58
2022/01/30 14:46:00;;;;;;;23.90;7.73;;;7.30;1.00;;;;;;6256657;28;20326;-59
2022/01/30 14:49:04;;;;;;;27.20;7.63;;;7.30;1.00;;;;;;6260237;28;20259;-58
2022/01/30 14:52:08;;;;;;;28.03;8.00;;;7.20;1.00;;;;;;6261862;28;20906;-58
2022/01/30 14:55:11;;;;;;;21.13;8.77;;;7.20;1.00;;;;;;6255496;28;20734;-60
2022/01/30 14:58:15;;;;;;;27.57;8.97;;;7.20;1.00;;;;;;6258754;28;20239;-59
2022/01/30 15:01:19;;;;;;;26.43;8.33;;;7.30;1.00;;;;;;6256966;28;20799;-59
2022/01/30 15:04:23;;;;;;;35.43;8.23;;;7.10;1.00;;;;;;6254731;28;20344;-58
2022/01/30 15:07:28;;;;;;;27.03;8.20;;;7.10;1.00;;;;;;6257769;28;20329;-59
2022/01/30 15:10:31;;;;;;;26.13;8.57;;;6.90;1.00;;;;;;6243852;28;20403;-59
2022/01/30 15:13:37;;;;;;;28.00;8.37;;;7.20;1.00;;;;;;6252939;28;20245;-58
2022/01/30 15:16:43;;;;;;;25.93;8.73;;;7.00;1.00;;;;;;6273008;28;20298;-59
2022/01/30 15:19:47;;;;;;;28.83;8.53;;;7.00;1.00;;;;;;6273757;28;20230;-59
2022/01/30 15:22:50;;;;;;;27.23;8.17;;;7.10;1.00;;;;;;6282754;28;20229;-59
2022/01/30 15:25:53;;;;;;;27.03;7.97;;;7.10;1.00;;;;;;6284490;28;20233;-59
2022/01/30 15:28:55;;;;;;;27.37;8.90;;;7.10;1.00;;;;;;6281915;28;20242;-58
2022/01/30 15:31:58;;;;;;;27.40;8.43;;;7.00;1.00;;;;;;6283328;28;20314;-58
2022/01/30 15:35:03;;;;;;;32.57;8.57;;;7.00;1.00;;;;;;6278192;28;20597;-60
2022/01/30 15:38:06;;;;;;;22.87;7.90;;;7.00;1.00;;;;;;6276641;28;20312;-59
2022/01/30 15:41:09;;;;;;;23.00;8.00;;;7.10;1.00;;;;;;6280961;28;20241;-60
2022/01/30 15:44:16;;;;;;;17.70;8.20;;;6.90;1.00;;;;;;6280177;28;20241;-58
2022/01/30 15:50:41;;;;;;;30.37;9.30;;;6.70;1.00;;;;;;6279291;28;20705;-58
2022/01/30 15:53:43;;;;;;;24.00;8.27;;;6.70;1.00;;;;;;6276362;28;20330;-58
2022/01/30 15:56:46;;;;;;;27.23;8.77;;;6.80;1.00;;;;;;6278587;28;20585;-59
2022/01/30 15:59:49;;;;;;;23.93;7.20;;;6.70;1.00;;;;;;6282621;28;20233;-58
2022/01/30 16:02:52;;;;;;;27.67;8.40;;;6.70;1.00;;;;;;6278106;28;20752;-58
2022/01/30 16:05:56;;;;;;;23.00;8.30;;;6.70;1.00;;;;;;6278859;28;20225;-60
2022/01/30 16:09:07;;;;;;;22.97;7.47;;;6.80;1.00;;;;;;6272438;28;20625;-58
2022/01/30 16:12:21;;;;;;;24.93;8.03;;;6.60;1.00;;;;;;6278060;28;20329;-58
2022/01/30 16:15:38;;;;;;;24.60;7.73;;;6.60;1.00;;;;;;6277496;28;20518;-59
2022/01/30 16:18:41;;;;;;;26.43;7.57;;;6.60;1.00;;;;;;6278885;28;20235;-59
2022/01/30 16:21:45;;;;;;;22.80;7.97;;;6.60;1.00;;;;;;6276508;28;20236;-60
2022/01/30 16:24:48;;;;;;;31.73;8.67;;;6.60;1.00;;;;;;6259102;28;20240;-58
2022/01/30 16:27:50;;;;;;;28.23;8.57;;;6.60;1.00;;;;;;6257287;28;20263;-59
2022/01/30 16:30:53;;;;;;;31.83;8.40;;;6.60;1.00;;;;;;6279337;28;20596;-59
2022/01/30 16:33:58;;;;;;;18.67;6.97;;;6.60;1.00;;;;;;6263472;28;20242;-58
2022/01/30 16:37:02;;;;;;;23.10;7.40;;;6.60;1.00;;;;;;6274492;28;20332;-60
2022/01/30 16:40:06;;;;;;;22.37;8.07;;;6.70;1.00;;;;;;6276076;28;20331;-60
2022/01/30 16:43:14;;;;;;;22.27;8.03;;;6.50;1.00;;;;;;6268422;28;20229;-59
2022/01/30 16:46:33;;;;;;;25.27;7.70;;;6.60;1.00;;;;;;6261805;28;20232;-59
2022/01/30 16:49:36;;;;;;;32.07;8.03;;;6.60;1.00;;;;;;6282148;28;20328;-58
2022/01/30 16:52:40;;;;;;;27.17;7.57;;;6.50;1.00;;;;;;6280155;28;20242;-58
2022/01/30 16:55:44;;;;;;;17.30;7.17;;;6.40;1.00;;;;;;6273491;28;20229;-58
2022/01/30 16:58:47;;;;;;;24.77;6.73;;;6.50;1.00;;;;;;6276049;28;20244;-59